createdAt,value
2023-03-20T00:02:47.967Z,101769.34
2023-03-20T00:07:51.447Z,101750.44
2023-03-20T00:12:54.146Z,101767.75
2023-03-20T00:17:57.268Z,101773.25
2023-03-20T00:23:18.404Z,101767.47
2023-03-20T00:28:42.700Z,101770.13
2023-03-20T00:33:47.519Z,101769.34
2023-03-20T00:38:50.380Z,101764.88
2023-03-20T00:43:58.376Z,101763.88
2023-03-20T00:49:02.271Z,101756.75
2023-03-20T00:54:19.644Z,101755.25
2023-03-20T00:59:26.903Z,101764.19
2023-03-20T01:04:41.221Z,101755.56
2023-03-20T01:09:43.900Z,101762.06
2023-03-20T01:14:56.918Z,101758.38
2023-03-20T01:19:59.577Z,101751.94
2023-03-20T01:25:03.356Z,101764.53
2023-03-20T01:30:17.797Z,101764.53
2023-03-20T01:35:23.287Z,101774.94
2023-03-20T01:40:34.325Z,101773.78
2023-03-20T01:45:38.520Z,101768.13
2023-03-20T01:50:41.319Z,101774.44
2023-03-20T01:55:52.078Z,101779.41
2023-03-20T02:00:55.193Z,101780.91
2023-03-20T02:05:59.474Z,101772.28
2023-03-20T02:11:09.739Z,101774.56
2023-03-20T02:16:17.151Z,101773.69
2023-03-20T02:22:17.224Z,101771.88
2023-03-20T02:27:56.807Z,101760.44
2023-03-20T02:33:33.588Z,101756.06
2023-03-20T02:39:06.920Z,101759.31
2023-03-20T02:44:24.235Z,101754.84
2023-03-20T02:49:49.589Z,101754.16
2023-03-20T02:55:01.694Z,101754.81
2023-03-20T03:00:29.629Z,101752.47
2023-03-20T03:05:44.403Z,101756.38
2023-03-20T03:10:55.280Z,101761.75
2023-03-20T03:16:05.428Z,101755.09
2023-03-20T03:21:09.603Z,101763.53
2023-03-20T03:26:21.141Z,101759.47
2023-03-20T03:31:24.815Z,101758.66
2023-03-20T03:36:51.948Z,101762.63
2023-03-20T03:41:59.082Z,101762.56
2023-03-20T03:47:23.482Z,101749.81
2023-03-20T03:52:29.083Z,101751.22
2023-03-20T03:57:45.122Z,101746.38
2023-03-20T04:02:55.604Z,101746.28
2023-03-20T04:08:00.149Z,101749.63
2023-03-20T04:13:02.780Z,101757.13
2023-03-20T04:18:06.332Z,101750.19
2023-03-20T04:23:09.980Z,101764.13
2023-03-20T04:28:12.671Z,101762.53
2023-03-20T04:33:21.978Z,101767.25
2023-03-20T04:38:56.344Z,101774.47
2023-03-20T04:44:00.778Z,101772.72
2023-03-20T04:49:04.503Z,101775.91
2023-03-20T04:54:08.274Z,101767.34
2023-03-20T04:59:11.643Z,101772.16
2023-03-20T05:04:15.125Z,101767.53
2023-03-20T05:09:18.200Z,101761.53
2023-03-20T05:14:22.076Z,101771.03
2023-03-20T05:19:45.478Z,101767.44
2023-03-20T05:24:54.191Z,101766.97
2023-03-20T05:30:16.261Z,101771.78
2023-03-20T05:35:37.241Z,101777.31
2023-03-20T05:41:01.318Z,101769.72
2023-03-20T05:46:17.874Z,101782.19
2023-03-20T05:51:36.082Z,101773.69
2023-03-20T05:57:00.448Z,101767.47
2023-03-20T06:02:21.621Z,101777.50
2023-03-20T06:07:33.449Z,101772.50
2023-03-20T06:12:40.652Z,101777.59
2023-03-20T06:17:43.548Z,101772.03
2023-03-20T06:22:49.578Z,101775.66
2023-03-20T06:27:52.326Z,101782.34
2023-03-20T06:32:58.542Z,101766.50
2023-03-20T06:38:09.535Z,101775.44
2023-03-20T06:43:15.327Z,101779.81
2023-03-20T06:48:24.472Z,101776.25
2023-03-20T06:53:27.559Z,101777.09
2023-03-20T06:58:37.837Z,101742.22
2023-03-20T07:03:40.624Z,101769.16
2023-03-20T07:08:45.606Z,101767.13
2023-03-20T07:13:49.920Z,101762.44
2023-03-20T07:19:13.818Z,101761.31
2023-03-20T07:24:19.396Z,101766.13
2023-03-20T07:29:22.014Z,101749.88
2023-03-20T07:34:24.653Z,101751.75
2023-03-20T07:39:27.957Z,101754.03
2023-03-20T07:45:03.036Z,101750.72
2023-03-20T07:50:08.368Z,101754.00
2023-03-20T07:55:11.795Z,101744.53
2023-03-20T08:00:15.867Z,101739.16
2023-03-20T08:05:21.455Z,101736.16
2023-03-20T08:10:24.011Z,101728.81
2023-03-20T08:15:27.751Z,101718.19
2023-03-20T08:20:31.997Z,101712.41
2023-03-20T08:25:35.144Z,101712.16
2023-03-20T08:30:37.878Z,101721.09
2023-03-20T08:35:40.975Z,101710.56
2023-03-20T08:40:43.921Z,101707.91
2023-03-20T08:45:46.518Z,101700.94
2023-03-20T08:50:49.133Z,101697.63
2023-03-20T08:55:52.785Z,101695.69
2023-03-20T09:00:55.328Z,101690.22
2023-03-20T09:05:58.139Z,101687.59
2023-03-20T09:11:00.849Z,101686.53
2023-03-20T09:16:03.996Z,101683.06
2023-03-20T09:21:07.124Z,101682.06
2023-03-20T09:26:09.584Z,101684.06
2023-03-20T09:31:12.405Z,101664.38
2023-03-20T09:36:16.203Z,101662.16
2023-03-20T09:41:25.070Z,101652.06
2023-03-20T09:46:50.194Z,101650.22
2023-03-20T09:51:59.450Z,101637.00
2023-03-20T09:57:05.282Z,101628.50
2023-03-20T10:02:24.692Z,101631.22
2023-03-20T10:07:27.271Z,101617.88
2023-03-20T10:13:02.832Z,101611.81
2023-03-20T10:18:29.969Z,101593.69
2023-03-20T10:23:41.950Z,101592.19
2023-03-20T10:28:51.291Z,101601.72
2023-03-20T10:34:18.227Z,101589.44
2023-03-20T10:39:46.479Z,101583.53
2023-03-20T10:45:31.028Z,101580.06
2023-03-20T10:50:40.569Z,101591.09
2023-03-20T10:55:46.271Z,101577.47
2023-03-20T11:01:07.672Z,101564.34
2023-03-20T11:06:23.926Z,101561.19
2023-03-20T11:11:31.277Z,101567.72
2023-03-20T11:17:11.926Z,101564.19
2023-03-20T11:22:33.646Z,101572.03
2023-03-20T11:27:36.269Z,101560.81
2023-03-20T11:32:47.685Z,101557.31
2023-03-20T11:37:53.339Z,101561.81
2023-03-20T11:43:06.627Z,101549.75
2023-03-20T11:48:23.980Z,101550.09
2023-03-20T11:53:34.482Z,101559.88
2023-03-20T11:58:48.025Z,101556.25
2023-03-20T12:04:05.903Z,101545.19
2023-03-20T12:09:34.627Z,101552.06
2023-03-20T12:14:45.867Z,101558.22
2023-03-20T12:19:51.107Z,101543.22
2023-03-20T12:25:03.186Z,101550.25
2023-03-20T12:30:32.049Z,101543.84
2023-03-20T12:35:46.779Z,101542.31
2023-03-20T12:40:54.177Z,101541.53
2023-03-20T12:46:33.642Z,101535.84
2023-03-20T12:51:44.623Z,101547.44
2023-03-20T12:57:03.923Z,101530.34
2023-03-20T13:02:35.228Z,101530.47
2023-03-20T13:07:48.250Z,101526.00
2023-03-20T13:13:25.481Z,101516.38
2023-03-20T13:18:48.915Z,101522.09
2023-03-20T13:24:21.954Z,101524.53
2023-03-20T13:29:42.532Z,101526.75
2023-03-20T13:35:01.348Z,101533.38
2023-03-20T13:40:27.187Z,101534.97
2023-03-20T13:45:39.220Z,101528.66
2023-03-20T13:50:42.323Z,101540.81
2023-03-20T13:56:07.069Z,101532.22
2023-03-20T14:01:23.917Z,101537.03
2023-03-20T14:06:32.355Z,101541.44
2023-03-20T14:11:37.989Z,101535.44
2023-03-20T14:16:41.877Z,101545.06
2023-03-20T14:21:49.824Z,101553.13
2023-03-20T14:27:00.927Z,101554.97
2023-03-20T14:32:15.181Z,101551.84
2023-03-20T14:37:29.717Z,101561.81
2023-03-20T14:42:32.206Z,101564.25
2023-03-20T14:47:47.573Z,101563.75
2023-03-20T14:52:55.106Z,101568.41
2023-03-20T14:58:39.024Z,101560.91
2023-03-20T15:04:03.078Z,101570.41
2023-03-20T15:09:09.958Z,101580.78
2023-03-20T15:14:23.039Z,101579.28
2023-03-20T15:19:25.964Z,101585.75
2023-03-20T15:24:30.422Z,101585.94
2023-03-20T15:29:34.144Z,101592.94
2023-03-20T15:34:36.716Z,101605.44
2023-03-20T15:39:48.375Z,101601.75
2023-03-20T15:44:54.077Z,101601.41
2023-03-20T15:49:58.732Z,101601.84
2023-03-20T15:55:08.643Z,101604.13
2023-03-20T16:00:20.593Z,101612.16
2023-03-20T16:05:27.851Z,101606.84
2023-03-20T16:10:36.601Z,101605.16
2023-03-20T16:15:40.389Z,101604.13
2023-03-20T16:20:59.576Z,101602.69
2023-03-20T16:26:06.071Z,101608.03
2023-03-20T16:31:17.453Z,101612.97
2023-03-20T16:36:30.526Z,101608.81
2023-03-20T16:41:35.907Z,101611.88
2023-03-20T16:47:12.146Z,101611.25
2023-03-20T16:52:17.089Z,101615.75
2023-03-20T16:57:20.324Z,101618.41
2023-03-20T17:02:30.268Z,101616.31
2023-03-20T17:07:32.952Z,101609.44
2023-03-20T17:12:40.944Z,101623.44
2023-03-20T17:17:44.758Z,101623.03
2023-03-20T17:22:48.690Z,101626.50
2023-03-20T17:27:51.714Z,101625.66
2023-03-20T17:32:56.576Z,101621.69
2023-03-20T17:37:59.952Z,101625.81
2023-03-20T17:43:02.507Z,101618.56
2023-03-20T17:48:05.477Z,101614.22
2023-03-20T17:53:17.657Z,101619.38
2023-03-20T17:58:22.865Z,101614.16
2023-03-20T18:03:26.308Z,101619.09
2023-03-20T18:08:29.128Z,101624.97
2023-03-20T18:13:32.604Z,101615.66
2023-03-20T18:18:35.262Z,101618.31
2023-03-20T18:23:38.109Z,101613.81
2023-03-20T18:28:40.717Z,101610.69
2023-03-20T18:33:43.257Z,101597.88
2023-03-20T18:38:49.178Z,101606.66
2023-03-20T18:43:55.841Z,101610.34
2023-03-20T18:48:58.332Z,101589.25
2023-03-20T18:54:03.429Z,101612.06
2023-03-20T18:59:08.216Z,101610.72
2023-03-20T19:04:11.319Z,101609.84
2023-03-20T19:09:14.294Z,101618.38
2023-03-20T19:14:17.360Z,101616.56
2023-03-20T19:19:22.354Z,101607.16
2023-03-20T19:24:25.352Z,101615.00
2023-03-20T19:29:28.314Z,101617.31
2023-03-20T19:35:22.043Z,101610.81
2023-03-20T19:39:54.825Z,101607.53
2023-03-20T19:44:57.376Z,101596.06
2023-03-20T19:49:59.864Z,101610.19
2023-03-20T19:55:03.822Z,101616.72
2023-03-20T20:00:54.777Z,101621.69
2023-03-20T20:10:55.541Z,101609.16
2023-03-20T20:16:01.472Z,101609.72
2023-03-20T20:22:09.859Z,101598.69
2023-03-20T20:26:31.090Z,101615.56
2023-03-20T20:31:34.637Z,101601.00
2023-03-20T20:42:00.931Z,101586.88
2023-03-20T20:47:03.436Z,101592.41
2023-03-20T20:52:06.692Z,101584.41
2023-03-20T20:57:12.067Z,101579.88
2023-03-20T21:02:16.057Z,101585.19
2023-03-20T21:07:18.547Z,101586.19
2023-03-20T21:12:33.812Z,101591.44
2023-03-20T21:17:53.850Z,101594.44
2023-03-20T21:23:02.389Z,101598.91
2023-03-20T21:28:04.837Z,101601.28
2023-03-20T21:33:07.449Z,101589.00
2023-03-20T21:43:37.907Z,101587.09
2023-03-20T21:49:24.627Z,101594.09
2023-03-20T22:00:06.873Z,101597.66
2023-03-20T22:05:28.807Z,101587.09
2023-03-20T22:16:16.516Z,101577.41
2023-03-20T22:21:42.440Z,101573.59
2023-03-20T22:27:10.720Z,101579.25
2023-03-20T22:37:57.160Z,101572.03
2023-03-20T22:43:26.345Z,101561.31
2023-03-20T22:47:58.475Z,101571.88
2023-03-20T22:53:01.556Z,101568.59
2023-03-20T22:58:08.328Z,101560.66
2023-03-20T23:03:19.989Z,101563.84
2023-03-20T23:08:25.222Z,101567.66
2023-03-20T23:13:27.743Z,101562.53
2023-03-20T23:18:31.314Z,101562.56
2023-03-20T23:23:34.205Z,101557.41
2023-03-20T23:28:38.081Z,101554.09
2023-03-20T23:33:40.944Z,101554.44
2023-03-20T23:38:43.913Z,101557.13
2023-03-20T23:43:46.351Z,101547.53
2023-03-20T23:48:48.732Z,101556.16
2023-03-20T23:53:51.201Z,101555.47
2023-03-20T23:59:01.059Z,101567.78
